Time;durP1;ratioP1;P1;durP2;ratioP2;P2;SDS_P1;SDS_P2;PMS_P1;PMS_P2;Temp;Humidity;BMP_temperature;BMP_pressure;BME280_temperature;BME280_humidity;BME280_pressure;Samples;Min_cycle;Max_cycle;Signal;HPM_P1;HPM_P2
2024/02/17 00:02:11;;;;;;;9.7;5.9;;;;;;;11.65;77.90918;942.913;;;;
2024/02/17 00:04:36;;;;;;;10.5;6.5;;;;;;;11.62;77.70996;942.9375;;;;
2024/02/17 00:07:01;;;;;;;12.2;6.4;;;;;;;11.72;76.82324;942.9267;;;;
2024/02/17 00:09:26;;;;;;;10.4;6.4;;;;;;;11.73;76.83594;942.9939;;;;
2024/02/17 00:11:51;;;;;;;8.8;5.9;;;;;;;11.74;77.03223;942.9684;;;;
2024/02/17 00:14:16;;;;;;;9.9;5;;;;;;;11.76;76.9541;943.0683;;;;
2024/02/17 00:16:41;;;;;;;8.5;4.5;;;;;;;11.77;77.02539;943.0966;;;;
2024/02/17 00:19:07;;;;;;;8;4.3;;;;;;;11.76;77.16016;943.1266;;;;
2024/02/17 00:21:32;;;;;;;8.5;4.1;;;;;;;11.78;76.66113;943.1113;;;;
2024/02/17 00:23:57;;;;;;;7.1;4.1;;;;;;;11.79;76.81152;943.18;;;;
2024/02/17 00:26:22;;;;;;;6.3;4.1;;;;;;;11.77;77.44922;943.1675;;;;
2024/02/17 00:28:47;;;;;;;5.9;4.3;;;;;;;11.66;78.32129;943.19;;;;
2024/02/17 00:31:12;;;;;;;6.6;4.2;;;;;;;11.57;78.76563;943.2117;;;;
2024/02/17 00:33:37;;;;;;;7.7;4.6;;;;;;;11.49;79.38086;943.1627;;;;
2024/02/17 00:36:02;;;;;;;8.7;4.8;;;;;;;11.36;79.53906;943.2611;;;;
2024/02/17 00:38:27;;;;;;;8.6;4.6;;;;;;;11.28;79.90137;943.2847;;;;
2024/02/17 00:40:52;;;;;;;8;4.4;;;;;;;11.3;79.61914;943.3487;;;;
2024/02/17 00:43:17;;;;;;;7.5;4.4;;;;;;;11.35;79.29492;943.3039;;;;
2024/02/17 00:45:43;;;;;;;10.8;5.1;;;;;;;11.45;78.98145;943.4166;;;;
2024/02/17 00:48:08;;;;;;;7.6;4.4;;;;;;;11.49;78.85059;943.425;;;;
2024/02/17 00:50:33;;;;;;;6.5;4.3;;;;;;;11.51;78.28516;943.4294;;;;
2024/02/17 00:52:58;;;;;;;7.3;4.2;;;;;;;11.58;77.87305;943.4064;;;;
2024/02/17 00:55:23;;;;;;;8.4;4.7;;;;;;;11.6;77.7959;943.4473;;;;
2024/02/17 00:57:48;;;;;;;8.3;4.9;;;;;;;11.43;80.3623;943.4648;;;;
2024/02/17 01:00:13;;;;;;;8.6;5;;;;;;;11.4;79.66016;943.5049;;;;
2024/02/17 01:02:38;;;;;;;9.6;4.9;;;;;;;11.39;80.32324;943.5031;;;;
2024/02/17 01:05:03;;;;;;;7.8;4.9;;;;;;;11.3;80.95703;943.5328;;;;
2024/02/17 01:07:28;;;;;;;8.4;4.6;;;;;;;11.36;79.92578;943.6096;;;;
2024/02/17 01:09:53;;;;;;;8.7;4.4;;;;;;;11.41;79.42285;943.6154;;;;
2024/02/17 01:12:19;;;;;;;9.8;5.3;;;;;;;11.45;79.46191;943.5728;;;;
2024/02/17 01:14:44;;;;;;;8.4;5.4;;;;;;;11.32;80.9834;943.6399;;;;
2024/02/17 01:17:09;;;;;;;9.2;5.2;;;;;;;11.23;81.29785;943.6705;;;;
2024/02/17 01:19:34;;;;;;;10.6;4.8;;;;;;;11.24;81.05957;943.6451;;;;
2024/02/17 01:21:59;;;;;;;9.8;5.7;;;;;;;11.22;81.39941;943.6392;;;;
2024/02/17 01:24:24;;;;;;;8.5;4.5;;;;;;;11.32;80.44531;943.687;;;;
2024/02/17 01:26:49;;;;;;;8.5;4.8;;;;;;;11.36;80.54395;943.6701;;;;
2024/02/17 01:29:17;;;;;;;6.9;4.3;;;;;;;11.39;80.50488;943.7001;;;;
2024/02/17 01:31:40;;;;;;;7.6;4.6;;;;;;;11.43;80.14746;943.7082;;;;
2024/02/17 01:34:05;;;;;;;5.3;3.5;;;;;;;11.41;80.62207;943.6461;;;;
2024/02/17 01:36:30;;;;;;;8.8;4.2;;;;;;;11.33;81.44238;943.6864;;;;
2024/02/17 01:38:55;;;;;;;6.7;3.9;;;;;;;11.23;81.69824;943.7159;;;;
2024/02/17 01:41:20;;;;;;;6.2;4;;;;;;;11.25;81.38184;943.7433;;;;
2024/02/17 01:43:45;;;;;;;9.4;4.8;;;;;;;11.23;81.73242;943.7176;;;;
2024/02/17 01:46:10;;;;;;;6.9;4.2;;;;;;;11.19;81.43945;943.7405;;;;
2024/02/17 01:48:35;;;;;;;9.3;5;;;;;;;11.18;82.24805;943.7164;;;;
2024/02/17 01:51:00;;;;;;;9.1;5.1;;;;;;;11.17;82.94434;943.7681;;;;
2024/02/17 01:53:25;;;;;;;10.9;5.1;;;;;;;11.18;82.94727;943.7269;;;;
2024/02/17 01:55:50;;;;;;;9.5;5.2;;;;;;;11.23;81.75684;943.8156;;;;
2024/02/17 01:58:15;;;;;;;8.2;5.1;;;;;;;11.3;81.35742;943.7529;;;;
2024/02/17 02:00:41;;;;;;;8.6;5.1;;;;;;;11.3;81.76855;943.8031;;;;
2024/02/17 02:03:05;;;;;;;9.2;4.7;;;;;;;11.31;82.29492;943.7626;;;;
2024/02/17 02:05:30;;;;;;;9.9;4;;;;;;;11.32;82.5957;943.8521;;;;
2024/02/17 02:07:56;;;;;;;4.9;3;;;;;;;11.3;82.54688;943.8709;;;;
2024/02/17 02:10:21;;;;;;;5.5;3.3;;;;;;;11.33;83.33008;943.8865;;;;
2024/02/17 02:12:46;;;;;;;6.1;2.9;;;;;;;11.32;82.5498;943.9222;;;;
2024/02/17 02:15:11;;;;;;;5.7;3.3;;;;;;;11.29;83.95215;943.9688;;;;
2024/02/17 02:17:36;;;;;;;5.1;3;;;;;;;11.26;83.5918;943.9517;;;;
2024/02/17 02:20:01;;;;;;;5.7;3.1;;;;;;;11.23;84.23535;944.022;;;;
2024/02/17 02:22:26;;;;;;;5.8;3.2;;;;;;;11.26;82.75684;943.9763;;;;
2024/02/17 02:24:51;;;;;;;4.7;2.9;;;;;;;11.27;84.39453;943.9764;;;;
2024/02/17 02:27:16;;;;;;;6.9;3.3;;;;;;;11.2;84.6875;943.9654;;;;
2024/02/17 02:29:42;;;;;;;6.8;4.3;;;;;;;11.07;86.11621;943.9746;;;;
2024/02/17 02:32:07;;;;;;;6.4;4;;;;;;;10.98;86.12109;944.0772;;;;
2024/02/17 02:34:32;;;;;;;7.8;3.7;;;;;;;10.93;86.40918;944.1035;;;;
2024/02/17 02:36:57;;;;;;;6.1;3.7;;;;;;;11;85.27734;944.0901;;;;
2024/02/17 02:39:22;;;;;;;7.5;3.9;;;;;;;11.05;85.96191;944.0778;;;;
2024/02/17 02:41:47;;;;;;;5.9;3.7;;;;;;;11;87.02637;944.0981;;;;
2024/02/17 02:44:13;;;;;;;9.6;4.5;;;;;;;10.87;87.68652;944.1231;;;;
2024/02/17 02:46:38;;;;;;;7.2;4.6;;;;;;;10.75;88.41797;944.0737;;;;
2024/02/17 02:49:02;;;;;;;8.9;4.4;;;;;;;10.84;87.13184;944.1194;;;;
2024/02/17 02:51:28;;;;;;;7.8;4.1;;;;;;;10.85;87.79688;944.1928;;;;
2024/02/17 02:53:53;;;;;;;7.2;3.8;;;;;;;10.81;87.9834;944.1703;;;;
2024/02/17 02:56:18;;;;;;;5.2;3.8;;;;;;;10.89;86.72949;944.1577;;;;
2024/02/17 02:58:44;;;;;;;4.5;3.1;;;;;;;10.92;87.0918;944.2347;;;;
2024/02/17 03:01:08;;;;;;;5.1;3.3;;;;;;;10.87;87.92578;944.1725;;;;
2024/02/17 03:03:33;;;;;;;6;3.5;;;;;;;10.82;88.00684;944.2449;;;;
2024/02/17 03:05:58;;;;;;;6.3;3.4;;;;;;;10.81;87.97168;944.2659;;;;
2024/02/17 03:08:23;;;;;;;5.3;3.3;;;;;;;10.82;87.79102;944.2481;;;;
2024/02/17 03:10:48;;;;;;;5.5;3;;;;;;;10.86;87.21777;944.2495;;;;
2024/02/17 03:13:13;;;;;;;4.8;3;;;;;;;10.91;87.86621;944.2775;;;;
2024/02/17 03:15:39;;;;;;;6.8;3.7;;;;;;;10.79;89.00781;944.315;;;;
2024/02/17 03:18:04;;;;;;;7.4;3.4;;;;;;;10.73;89.84082;944.3392;;;;
2024/02/17 03:20:29;;;;;;;6.4;4.1;;;;;;;10.66;90.24805;944.3762;;;;
2024/02/17 03:22:54;;;;;;;6.8;3.6;;;;;;;10.62;89.63379;944.3922;;;;
2024/02/17 03:25:19;;;;;;;4.1;3.1;;;;;;;10.64;89.65039;944.4396;;;;
2024/02/17 03:27:44;;;;;;;5.5;3.3;;;;;;;10.66;89.72266;944.459;;;;
2024/02/17 03:30:09;;;;;;;5.4;3.1;;;;;;;10.66;89.68848;944.4384;;;;
2024/02/17 03:32:34;;;;;;;5.2;3;;;;;;;10.62;90.46875;944.4464;;;;
2024/02/17 03:34:59;;;;;;;6.6;3.2;;;;;;;10.6;91.22852;944.5142;;;;
2024/02/17 03:37:25;;;;;;;5.7;2.9;;;;;;;10.66;91.33301;944.4919;;;;
2024/02/17 03:39:50;;;;;;;5.9;2.9;;;;;;;10.63;91.37305;944.5359;;;;
2024/02/17 03:42:15;;;;;;;5.6;3.6;;;;;;;10.68;90.75391;944.5684;;;;
2024/02/17 03:44:40;;;;;;;6.4;3.4;;;;;;;10.73;90.25195;944.5734;;;;
2024/02/17 03:47:05;;;;;;;6.4;3.8;;;;;;;10.75;91.21484;944.5977;;;;
2024/02/17 03:49:30;;;;;;;8.4;3.4;;;;;;;10.72;91.24316;944.6164;;;;
2024/02/17 03:51:55;;;;;;;5.8;3.4;;;;;;;10.63;92.41211;944.6178;;;;
2024/02/17 03:54:20;;;;;;;5.6;3.3;;;;;;;10.58;92.54004;944.5991;;;;
2024/02/17 03:56:45;;;;;;;6;2.9;;;;;;;10.64;92.06055;944.6308;;;;
2024/02/17 03:59:10;;;;;;;5.1;3.1;;;;;;;10.69;91.75;944.6213;;;;
2024/02/17 04:02:29;;;;;;;7.3;3.2;;;;;;;10.68;92.65039;944.7214;;;;
2024/02/17 04:04:54;;;;;;;5.7;2.9;;;;;;;10.74;91.64746;944.7808;;;;
2024/02/17 04:07:20;;;;;;;3.8;2.6;;;;;;;10.76;91.91406;944.8274;;;;
2024/02/17 04:09:44;;;;;;;5.9;3.1;;;;;;;10.75;92.03516;944.8247;;;;
2024/02/17 04:12:09;;;;;;;5.6;3.6;;;;;;;10.75;91.71777;944.8551;;;;
2024/02/17 04:14:34;;;;;;;5.8;2.9;;;;;;;10.78;92.09082;944.8867;;;;
2024/02/17 04:16:59;;;;;;;5.3;3.3;;;;;;;10.74;92.42383;944.8956;;;;
2024/02/17 04:19:25;;;;;;;5.3;3.1;;;;;;;10.75;92.10742;944.9722;;;;
2024/02/17 04:21:50;;;;;;;4.9;2.8;;;;;;;10.8;92.19531;944.9651;;;;
2024/02/17 04:24:15;;;;;;;5.5;3.2;;;;;;;10.67;93.49316;945.0239;;;;
2024/02/17 04:26:40;;;;;;;7;3.3;;;;;;;10.65;93.91406;945.0332;;;;
2024/02/17 04:29:05;;;;;;;5.5;3.3;;;;;;;10.6;94.63281;945.0295;;;;
2024/02/17 04:31:30;;;;;;;5.4;3.3;;;;;;;10.66;93.34277;945.0923;;;;
2024/02/17 04:33:56;;;;;;;4;3.2;;;;;;;10.71;93.53711;945.1283;;;;
2024/02/17 04:36:21;;;;;;;16.1;9.8;;;;;;;10.68;93.56445;945.1531;;;;
2024/02/17 04:40:00;;;;;;;12.3;7.6;;;;;;;10.7;93.87598;945.1981;;;;
2024/02/17 04:42:24;;;;;;;5.9;3;;;;;;;10.64;94.74414;945.2313;;;;
2024/02/17 04:44:49;;;;;;;3.9;3;;;;;;;10.68;93.81543;945.2065;;;;
2024/02/17 04:47:15;;;;;;;5.9;3.2;;;;;;;10.64;94.52734;945.1691;;;;
2024/02/17 04:49:40;;;;;;;3.6;3;;;;;;;10.7;94.06055;945.2612;;;;
2024/02/17 04:52:05;;;;;;;4.5;2.8;;;;;;;10.68;94.46582;945.298;;;;
2024/02/17 04:54:30;;;;;;;8.2;3.4;;;;;;;10.69;94.31934;945.3072;;;;
2024/02/17 04:56:55;;;;;;;8.3;3.8;;;;;;;10.72;93.03711;945.3397;;;;
2024/02/17 04:59:21;;;;;;;5.6;3.3;;;;;;;10.72;93.8457;945.3976;;;;
2024/02/17 05:01:45;;;;;;;7.7;2.9;;;;;;;10.74;94.05762;945.3646;;;;
2024/02/17 05:04:10;;;;;;;4.7;2.8;;;;;;;10.73;94.27246;945.3461;;;;
2024/02/17 05:06:35;;;;;;;5.2;2.7;;;;;;;10.74;94.32031;945.4189;;;;
2024/02/17 05:09:00;;;;;;;4;2.6;;;;;;;10.71;94.79395;945.4979;;;;
2024/02/17 05:11:25;;;;;;;4.1;2.6;;;;;;;10.67;95.44629;945.497;;;;
2024/02/17 05:13:51;;;;;;;4;2.6;;;;;;;10.64;95.65527;945.5378;;;;
2024/02/17 05:16:15;;;;;;;5.5;2.9;;;;;;;10.6;95.46484;945.5447;;;;
2024/02/17 05:18:41;;;;;;;4.8;2.9;;;;;;;10.62;95.43457;945.6362;;;;
2024/02/17 05:21:06;;;;;;;5.2;2.8;;;;;;;10.61;95.60547;945.6202;;;;
2024/02/17 05:23:31;;;;;;;3.8;2.9;;;;;;;10.61;95.99414;945.5438;;;;
2024/02/17 05:25:57;;;;;;;5.4;3.1;;;;;;;10.53;95.85059;945.6379;;;;
2024/02/17 05:28:21;;;;;;;4.6;3;;;;;;;10.51;96.2666;945.7021;;;;
2024/02/17 05:30:46;;;;;;;3.7;2.6;;;;;;;10.54;95.59961;945.7495;;;;
2024/02/17 05:33:11;;;;;;;4.1;2.6;;;;;;;10.57;95.92676;945.787;;;;
2024/02/17 05:35:36;;;;;;;4.2;2.9;;;;;;;10.58;96.53613;945.7769;;;;
2024/02/17 05:38:02;;;;;;;5.6;3.1;;;;;;;10.55;97.15625;945.8088;;;;
2024/02/17 05:40:27;;;;;;;7;3.5;;;;;;;10.54;97.3252;945.7936;;;;
2024/02/17 05:42:52;;;;;;;5;3.3;;;;;;;10.54;97.2666;945.8596;;;;
2024/02/17 05:45:17;;;;;;;5.8;3.3;;;;;;;10.56;96.96387;945.8783;;;;
2024/02/17 05:47:43;;;;;;;6;3.5;;;;;;;10.54;96.97168;945.8628;;;;
2024/02/17 05:50:07;;;;;;;6.3;3.9;;;;;;;10.49;96.7998;945.774;;;;
2024/02/17 05:52:32;;;;;;;6.9;4.3;;;;;;;10.47;97.53906;945.8359;;;;
2024/02/17 05:54:57;;;;;;;7.2;4.9;;;;;;;10.47;97.29785;945.8883;;;;
2024/02/17 05:57:22;;;;;;;4.3;3.6;;;;;;;10.41;97.44336;945.9126;;;;
2024/02/17 05:59:47;;;;;;;7;3.9;;;;;;;10.44;97.08398;946.0214;;;;
2024/02/17 06:02:13;;;;;;;4.2;3.5;;;;;;;10.44;97.60938;946.0365;;;;
2024/02/17 06:04:38;;;;;;;7.7;3.9;;;;;;;10.43;97.17578;945.9655;;;;
2024/02/17 06:07:04;;;;;;;4.1;3.2;;;;;;;10.44;96.44531;946.1376;;;;
2024/02/17 06:09:28;;;;;;;5;3.2;;;;;;;10.49;96.28613;946.1715;;;;
2024/02/17 06:11:53;;;;;;;6.3;3.2;;;;;;;10.53;96.16992;946.1866;;;;
2024/02/17 06:14:20;;;;;;;5.6;4.1;;;;;;;10.56;95.27441;946.1793;;;;
2024/02/17 06:16:43;;;;;;;9.9;6.3;;;;;;;10.55;96.02344;946.1942;;;;
2024/02/17 06:21:34;;;;;;;8.8;6;;;;;;;10.56;96.37012;946.2758;;;;
2024/02/17 06:23:59;;;;;;;9.9;6.3;;;;;;;10.61;95.84375;946.3312;;;;
2024/02/17 06:26:24;;;;;;;8.7;5.7;;;;;;;10.6;96.4834;946.3762;;;;
2024/02/17 06:28:49;;;;;;;6.8;4.4;;;;;;;10.55;95.47559;946.4156;;;;
2024/02/17 06:31:14;;;;;;;7.5;4.6;;;;;;;10.5;94.93066;946.4608;;;;
2024/02/17 06:33:39;;;;;;;7.5;4.7;;;;;;;10.44;96.23047;946.4952;;;;
2024/02/17 06:36:04;;;;;;;8.1;4.8;;;;;;;10.45;96.41504;946.5042;;;;
2024/02/17 06:38:29;;;;;;;7.8;4.6;;;;;;;10.38;96.70703;946.5699;;;;
2024/02/17 06:40:55;;;;;;;5.4;3.9;;;;;;;10.34;96.61719;946.5673;;;;
2024/02/17 06:43:20;;;;;;;6.8;4.5;;;;;;;10.37;97.37793;946.604;;;;
2024/02/17 06:45:45;;;;;;;7.5;4.7;;;;;;;10.41;97.52344;946.6462;;;;
2024/02/17 06:48:11;;;;;;;6.7;4.6;;;;;;;10.4;97.36133;946.6563;;;;
2024/02/17 06:50:35;;;;;;;9.9;5.4;;;;;;;10.46;95.96973;946.7114;;;;
2024/02/17 06:53:00;;;;;;;8.8;5.4;;;;;;;10.45;97.39648;946.7335;;;;
2024/02/17 06:55:25;;;;;;;6.4;5;;;;;;;10.42;97.9707;946.7742;;;;
2024/02/17 06:57:50;;;;;;;6.8;4.3;;;;;;;10.4;97.10059;946.834;;;;
2024/02/17 07:00:16;;;;;;;7.6;4.5;;;;;;;10.46;97.44434;946.8158;;;;
2024/02/17 07:02:41;;;;;;;8.8;4.6;;;;;;;10.58;96.88867;946.8615;;;;
2024/02/17 07:05:06;;;;;;;6.5;4.5;;;;;;;10.58;97.49316;946.8876;;;;
2024/02/17 07:07:31;;;;;;;8.4;5;;;;;;;10.56;97.93457;946.8904;;;;
2024/02/17 07:09:56;;;;;;;7.1;5.1;;;;;;;10.6;97.15527;946.9001;;;;
2024/02/17 07:12:21;;;;;;;8.1;4.8;;;;;;;10.65;96.92969;946.9416;;;;
2024/02/17 07:14:46;;;;;;;7.8;5.1;;;;;;;10.67;97.78809;947.0105;;;;
2024/02/17 07:17:11;;;;;;;9.5;5.7;;;;;;;10.68;97.32324;947.0106;;;;
2024/02/17 07:19:36;;;;;;;10.8;6.8;;;;;;;10.7;98.43359;947.0366;;;;
2024/02/17 07:22:24;;;;;;;10.8;6.1;;;;;;;10.68;98.7041;947.0233;;;;
2024/02/17 07:24:51;;;;;;;9.8;6.1;;;;;;;10.68;98.69434;947.0561;;;;
2024/02/17 07:27:15;;;;;;;9.7;5.9;;;;;;;10.72;98.29102;947.057;;;;
2024/02/17 07:29:42;;;;;;;8.4;5.7;;;;;;;10.72;98.13184;947.1654;;;;
2024/02/17 07:32:05;;;;;;;7.9;5.3;;;;;;;10.78;98.07715;947.162;;;;
2024/02/17 07:34:31;;;;;;;8.9;5.3;;;;;;;10.82;97.61719;947.207;;;;
2024/02/17 07:36:55;;;;;;;7.6;5.3;;;;;;;10.86;97.61523;947.2366;;;;
2024/02/17 07:39:20;;;;;;;7.4;4.5;;;;;;;10.9;97.12109;947.2264;;;;
2024/02/17 07:41:45;;;;;;;8.3;4.5;;;;;;;10.95;97.18848;947.3173;;;;
2024/02/17 07:44:10;;;;;;;7.5;4.8;;;;;;;10.94;96.93457;947.3516;;;;
2024/02/17 07:46:36;;;;;;;6.3;4.4;;;;;;;10.96;96.89355;947.3886;;;;
2024/02/17 07:49:01;;;;;;;7.5;4.4;;;;;;;10.95;97.04199;947.3709;;;;
2024/02/17 07:51:26;;;;;;;7.1;4.4;;;;;;;10.98;96.81934;947.4417;;;;
2024/02/17 07:53:51;;;;;;;5.6;4;;;;;;;11;97.49512;947.4484;;;;
2024/02/17 07:56:16;;;;;;;6.6;3.9;;;;;;;10.98;97.45898;947.4433;;;;
2024/02/17 07:58:42;;;;;;;7.5;4.1;;;;;;;10.93;97.91602;947.4852;;;;
2024/02/17 08:01:07;;;;;;;5.8;3.8;;;;;;;10.97;97.59473;947.5179;;;;
2024/02/17 08:03:32;;;;;;;6;4.1;;;;;;;10.94;98.29492;947.5084;;;;
2024/02/17 08:05:57;;;;;;;7;4.9;;;;;;;10.94;98.38574;947.5859;;;;
2024/02/17 08:08:24;;;;;;;5.7;4.3;;;;;;;10.98;97.52539;947.644;;;;
2024/02/17 08:10:48;;;;;;;7.6;4.8;;;;;;;11;97.48438;947.6484;;;;
2024/02/17 08:13:13;;;;;;;6.4;3.6;;;;;;;11.03;97.23145;947.675;;;;
2024/02/17 08:15:39;;;;;;;6.6;4.2;;;;;;;11.07;97.44336;947.64;;;;
2024/02/17 08:18:03;;;;;;;7.4;5.3;;;;;;;11.07;98.08301;947.6369;;;;
2024/02/17 08:20:28;;;;;;;16;9.5;;;;;;;11.06;98.4248;947.6756;;;;
2024/02/17 08:22:54;;;;;;;14.8;9;;;;;;;11;98.73242;947.6932;;;;
2024/02/17 08:25:19;;;;;;;11;6.6;;;;;;;11.04;98.87793;947.6967;;;;
2024/02/17 08:27:45;;;;;;;10.2;5.9;;;;;;;11.05;97.83887;947.7273;;;;
2024/02/17 08:30:09;;;;;;;9;5.5;;;;;;;11.06;97.20117;947.7441;;;;
2024/02/17 08:32:34;;;;;;;6.4;4.3;;;;;;;11.07;97.56934;947.7014;;;;
2024/02/17 08:34:59;;;;;;;6;4.4;;;;;;;11.08;97.92578;947.7686;;;;
2024/02/17 08:37:24;;;;;;;10;5;;;;;;;11.12;97.5127;947.7399;;;;
2024/02/17 08:39:50;;;;;;;7;4.9;;;;;;;11.17;96.92773;947.8383;;;;
2024/02/17 08:42:15;;;;;;;8.2;5.2;;;;;;;11.21;98.03809;947.9002;;;;
2024/02/17 08:44:43;;;;;;;7.8;5.1;;;;;;;11.19;98.375;947.9138;;;;
2024/02/17 08:47:05;;;;;;;7.6;5.5;;;;;;;11.16;98.44922;947.9179;;;;
2024/02/17 08:49:31;;;;;;;7.9;5.5;;;;;;;11.16;98.56152;947.9727;;;;
2024/02/17 08:51:55;;;;;;;10.4;6;;;;;;;11.16;98.73242;947.9934;;;;
2024/02/17 08:54:25;;;;;;;9.1;5.7;;;;;;;11.16;99.02051;948.0159;;;;
2024/02/17 08:56:45;;;;;;;11.5;5.7;;;;;;;11.18;98.75;948.0762;;;;
2024/02/17 08:59:11;;;;;;;9.4;5.7;;;;;;;11.24;98.23828;948.0452;;;;
2024/02/17 09:01:36;;;;;;;7.5;5.3;;;;;;;11.31;97.4502;948.0888;;;;
2024/02/17 09:04:01;;;;;;;8.8;6.3;;;;;;;11.34;97.21875;948.0536;;;;
2024/02/17 09:06:26;;;;;;;13.5;7.1;;;;;;;11.37;97.23828;948.1437;;;;
2024/02/17 09:08:52;;;;;;;16.4;7.8;;;;;;;11.36;97.49707;948.1394;;;;
2024/02/17 09:11:17;;;;;;;15.7;8.7;;;;;;;11.39;97.25293;948.2111;;;;
2024/02/17 09:13:42;;;;;;;13.3;8.8;;;;;;;11.42;96.79199;948.1786;;;;
2024/02/17 09:16:07;;;;;;;15.1;8.4;;;;;;;11.41;96.36523;948.2004;;;;
2024/02/17 09:18:33;;;;;;;10.9;7.1;;;;;;;11.41;96.44531;948.2195;;;;
2024/02/17 09:20:58;;;;;;;11.5;7.1;;;;;;;11.42;96.57324;948.2169;;;;
2024/02/17 09:23:23;;;;;;;10.6;6.3;;;;;;;11.44;95.74219;948.2579;;;;
2024/02/17 09:25:48;;;;;;;11.6;7.2;;;;;;;11.45;97.41406;948.2583;;;;
2024/02/17 09:28:13;;;;;;;12.7;6.8;;;;;;;11.45;98.24902;948.3506;;;;
2024/02/17 09:30:38;;;;;;;15.5;8.7;;;;;;;11.44;98.48926;948.4016;;;;
2024/02/17 09:33:04;;;;;;;15.1;8.5;;;;;;;11.43;98.75977;948.4539;;;;
2024/02/17 09:35:29;;;;;;;12.5;7.9;;;;;;;11.44;99.13086;948.4239;;;;
2024/02/17 09:37:54;;;;;;;14.9;8;;;;;;;11.44;99.36914;948.5131;;;;
2024/02/17 09:40:19;;;;;;;14.9;7.1;;;;;;;11.42;99.62793;948.4824;;;;
2024/02/17 09:42:44;;;;;;;14.8;6.8;;;;;;;11.39;99.31055;948.5595;;;;
2024/02/17 09:45:09;;;;;;;11.4;6.9;;;;;;;11.42;99.40137;948.5798;;;;
2024/02/17 09:47:34;;;;;;;13.1;7.9;;;;;;;11.41;99.83105;948.6222;;;;
2024/02/17 09:49:59;;;;;;;11.6;7.2;;;;;;;11.42;99.55859;948.6013;;;;
2024/02/17 09:52:24;;;;;;;10.6;7;;;;;;;11.41;99.70605;948.5854;;;;
2024/02/17 09:54:49;;;;;;;12.7;7.4;;;;;;;11.42;99.5957;948.6364;;;;
2024/02/17 09:57:17;;;;;;;11;7;;;;;;;11.46;99.39551;948.6348;;;;
2024/02/17 09:59:40;;;;;;;11.2;7.4;;;;;;;11.49;99.79102;948.7112;;;;
2024/02/17 10:02:05;;;;;;;12.1;7.3;;;;;;;11.49;99.9873;948.7424;;;;
2024/02/17 10:04:30;;;;;;;13.5;7.4;;;;;;;11.51;100;948.7684;;;;
2024/02/17 10:06:55;;;;;;;10.7;7.3;;;;;;;11.56;100;948.7999;;;;
2024/02/17 10:09:20;;;;;;;10.8;7.6;;;;;;;11.62;99.44434;948.8189;;;;
2024/02/17 10:11:46;;;;;;;10.5;7.1;;;;;;;11.66;99.22559;948.8431;;;;
2024/02/17 10:14:12;;;;;;;9.3;6.6;;;;;;;11.68;98.41699;948.845;;;;
2024/02/17 10:16:36;;;;;;;9.9;6.1;;;;;;;11.72;98.86035;948.802;;;;
2024/02/17 10:19:03;;;;;;;11;6.2;;;;;;;11.73;100;948.8455;;;;
2024/02/17 10:21:28;;;;;;;8.1;6.1;;;;;;;11.73;100;948.9045;;;;
2024/02/17 10:23:51;;;;;;;9.8;5.9;;;;;;;11.72;100;948.933;;;;
2024/02/17 10:26:17;;;;;;;9;5.4;;;;;;;11.75;100;948.9782;;;;
2024/02/17 10:28:42;;;;;;;7.7;5.1;;;;;;;11.79;100;949.001;;;;
2024/02/17 10:31:08;;;;;;;4.5;3.5;;;;;;;11.77;99.39941;949.0314;;;;
2024/02/17 10:33:32;;;;;;;5.2;3.4;;;;;;;11.8;99.0625;949.0761;;;;
2024/02/17 10:37:15;;;;;;;5.6;3.9;;;;;;;11.8;99.13086;949.1138;;;;
2024/02/17 10:39:39;;;;;;;5.1;4.4;;;;;;;11.78;99.08105;949.1294;;;;
2024/02/17 10:42:04;;;;;;;6.2;4.6;;;;;;;11.82;98.37012;949.2614;;;;
2024/02/17 10:44:30;;;;;;;3.7;2.1;;;;;;;11.52;96.27637;949.256;;;;
2024/02/17 10:46:55;;;;;;;3;1.7;;;;;;;11.35;95.21875;949.3075;;;;
2024/02/17 10:49:20;;;;;;;1.9;1.6;;;;;;;11.2;95.5293;949.2653;;;;
2024/02/17 10:51:45;;;;;;;2.8;1.9;;;;;;;10.98;96.17871;949.38;;;;
2024/02/17 10:54:10;;;;;;;3;2.2;;;;;;;10.71;96.26758;949.3805;;;;
2024/02/17 10:56:35;;;;;;;3.7;2.6;;;;;;;10.69;95.80469;949.4484;;;;
2024/02/17 10:59:01;;;;;;;4.1;2.9;;;;;;;10.77;95.94824;949.3231;;;;
2024/02/17 11:01:27;;;;;;;6.2;2.8;;;;;;;10.71;95.52539;949.4697;;;;
2024/02/17 11:03:51;;;;;;;4.3;3.4;;;;;;;10.79;95.24414;949.4352;;;;
2024/02/17 11:06:16;;;;;;;6.2;4.5;;;;;;;10.6;95.95801;949.4633;;;;
2024/02/17 11:08:41;;;;;;;5.3;3.7;;;;;;;10.29;97.14453;949.5485;;;;
2024/02/17 11:11:06;;;;;;;4.5;3.5;;;;;;;10.39;97.35938;949.5041;;;;
2024/02/17 11:13:31;;;;;;;5.2;3.9;;;;;;;10.32;97.45898;949.5429;;;;
2024/02/17 11:15:56;;;;;;;5.7;3.6;;;;;;;10.5;96.48145;949.5474;;;;
2024/02/17 11:18:22;;;;;;;6.1;3.8;;;;;;;10.46;96.93945;949.449;;;;
2024/02/17 11:20:47;;;;;;;6.6;3.7;;;;;;;10.42;97.04785;949.4878;;;;
2024/02/17 11:23:12;;;;;;;4.6;3.8;;;;;;;10.5;96.98438;949.5186;;;;
2024/02/17 11:25:38;;;;;;;4.7;3.7;;;;;;;10.18;97.64355;949.4889;;;;
2024/02/17 11:28:02;;;;;;;5;3.7;;;;;;;10.28;98.60156;949.52;;;;
2024/02/17 11:30:27;;;;;;;5.7;3.8;;;;;;;10.33;98.38574;949.497;;;;
2024/02/17 11:32:52;;;;;;;5.1;3.7;;;;;;;10.35;98.41211;949.4353;;;;
2024/02/17 11:35:18;;;;;;;4.8;3.6;;;;;;;10.39;98.52148;949.457;;;;
2024/02/17 11:37:44;;;;;;;5;3.8;;;;;;;10.54;98.12305;949.51;;;;
2024/02/17 11:40:08;;;;;;;5.1;3.6;;;;;;;10.47;98.19922;949.509;;;;
2024/02/17 11:42:33;;;;;;;3.6;3;;;;;;;10.38;98.875;949.5706;;;;
2024/02/17 11:44:58;;;;;;;4.5;3.4;;;;;;;10.35;99.41699;949.507;;;;
2024/02/17 11:47:25;;;;;;;4.6;3.6;;;;;;;10.38;99.26367;949.6096;;;;
2024/02/17 11:49:50;;;;;;;5.3;3.9;;;;;;;10.62;98.65527;949.5756;;;;
2024/02/17 11:52:15;;;;;;;6.3;4;;;;;;;10.6;98.00195;949.6434;;;;
2024/02/17 11:54:40;;;;;;;5.6;4.1;;;;;;;10.48;98.29297;949.6711;;;;
2024/02/17 11:57:04;;;;;;;5.3;3.9;;;;;;;10.46;98.82324;949.6504;;;;
2024/02/17 11:59:29;;;;;;;5.6;4.4;;;;;;;10.52;98.34863;949.7176;;;;
2024/02/17 12:01:54;;;;;;;5.4;4;;;;;;;10.74;97.24414;949.6314;;;;
2024/02/17 12:04:19;;;;;;;6;4.3;;;;;;;10.74;97.72461;949.6563;;;;
2024/02/17 12:06:44;;;;;;;6.3;4.4;;;;;;;10.75;97.875;949.6747;;;;
2024/02/17 12:09:09;;;;;;;6.7;4.4;;;;;;;10.68;97.51758;949.7413;;;;
2024/02/17 12:11:34;;;;;;;6.1;3.7;;;;;;;10.67;97.99316;949.6917;;;;
2024/02/17 12:13:59;;;;;;;5.6;4;;;;;;;10.73;97.79102;949.7291;;;;
2024/02/17 12:16:24;;;;;;;5.6;4.3;;;;;;;10.7;98.19336;949.7034;;;;
2024/02/17 12:18:50;;;;;;;5.8;4.2;;;;;;;10.8;97.83887;949.7302;;;;
2024/02/17 12:21:14;;;;;;;6.4;4.3;;;;;;;10.79;98.22559;949.7483;;;;
2024/02/17 12:23:39;;;;;;;6.6;4.2;;;;;;;10.92;97.50195;949.7578;;;;
2024/02/17 12:26:04;;;;;;;6;4.3;;;;;;;10.93;97.36914;949.7117;;;;
2024/02/17 12:28:29;;;;;;;5;3.8;;;;;;;10.91;97.2832;949.755;;;;
2024/02/17 12:30:56;;;;;;;4.7;3.8;;;;;;;10.8;97.40723;949.802;;;;
2024/02/17 12:33:21;;;;;;;5;3.2;;;;;;;10.79;96.93457;949.8645;;;;
2024/02/17 12:35:48;;;;;;;4.6;3.6;;;;;;;10.92;96.49609;949.827;;;;
2024/02/17 12:38:10;;;;;;;4.1;3;;;;;;;10.94;96.31738;949.8714;;;;
2024/02/17 12:40:35;;;;;;;4.6;3.5;;;;;;;10.88;96.21191;949.8569;;;;
2024/02/17 12:43:00;;;;;;;3.9;3;;;;;;;10.87;96.69043;949.8823;;;;
2024/02/17 12:45:27;;;;;;;4.3;3;;;;;;;10.84;96.75293;949.8711;;;;
2024/02/17 12:47:50;;;;;;;3.5;3.2;;;;;;;10.88;96.52246;949.9391;;;;
2024/02/17 12:50:16;;;;;;;3.6;2.6;;;;;;;10.94;96.24902;949.9256;;;;
2024/02/17 12:52:41;;;;;;;4;2.4;;;;;;;11.11;95.3291;949.9471;;;;
2024/02/17 12:55:06;;;;;;;2.9;2.2;;;;;;;11.18;94.89453;949.9973;;;;
2024/02/17 12:57:31;;;;;;;3.9;2.8;;;;;;;11.19;95.02246;950.0064;;;;
2024/02/17 12:59:56;;;;;;;3.2;2.4;;;;;;;11.02;94.62109;949.9949;;;;
2024/02/17 13:02:21;;;;;;;3.6;2.3;;;;;;;11.01;95.61133;949.9846;;;;
2024/02/17 13:04:46;;;;;;;3.3;2.7;;;;;;;10.99;95.46094;950.0471;;;;
2024/02/17 13:07:12;;;;;;;3.2;2.5;;;;;;;11.06;95.03125;950.0645;;;;
2024/02/17 13:09:37;;;;;;;3.1;2.7;;;;;;;10.92;95.67383;950.0701;;;;
2024/02/17 13:12:02;;;;;;;5.5;3.8;;;;;;;11;95.67871;950.0442;;;;
2024/02/17 13:14:27;;;;;;;3.9;3.1;;;;;;;11.06;94.66504;950.0932;;;;
2024/02/17 13:16:52;;;;;;;5.1;3;;;;;;;11.09;94.6709;950.0684;;;;
2024/02/17 13:19:17;;;;;;;3.4;2.6;;;;;;;11.18;94.35742;950.133;;;;
2024/02/17 13:21:43;;;;;;;2.9;2.5;;;;;;;11.15;93.91699;950.153;;;;
2024/02/17 13:24:09;;;;;;;4.7;3;;;;;;;11.09;93.89355;950.2184;;;;
2024/02/17 13:26:33;;;;;;;3.9;2.9;;;;;;;11.14;93.67676;950.2188;;;;
2024/02/17 13:28:58;;;;;;;4;3.1;;;;;;;10.96;94.72363;950.3047;;;;
2024/02/17 13:31:23;;;;;;;4.3;3.3;;;;;;;10.89;94.66016;950.2317;;;;
2024/02/17 13:33:53;;;;;;;3.3;2.9;;;;;;;10.8;94.26563;950.2761;;;;
2024/02/17 13:36:18;;;;;;;3.7;3;;;;;;;10.76;94.3125;950.2676;;;;
2024/02/17 13:38:43;;;;;;;3.7;3;;;;;;;10.81;93.57031;950.2416;;;;
2024/02/17 13:41:08;;;;;;;4.8;3.1;;;;;;;10.69;94.20508;950.249;;;;
2024/02/17 13:43:33;;;;;;;5.2;3.3;;;;;;;10.54;94.59473;950.277;;;;
2024/02/17 13:45:58;;;;;;;4.2;3.3;;;;;;;10.55;94.90723;950.283;;;;
2024/02/17 13:48:23;;;;;;;4.6;2.9;;;;;;;10.61;94.80469;950.2615;;;;
2024/02/17 13:50:49;;;;;;;3.4;2.7;;;;;;;10.49;95.14453;950.2551;;;;
2024/02/17 13:53:13;;;;;;;3.7;2.8;;;;;;;10.44;96.04785;950.3045;;;;
2024/02/17 13:55:38;;;;;;;4;3;;;;;;;10.5;95.13672;950.3605;;;;
2024/02/17 13:58:03;;;;;;;12.2;7.5;;;;;;;10.49;95.7832;950.3809;;;;
2024/02/17 14:00:28;;;;;;;9.3;6.4;;;;;;;10.55;95.71777;950.3492;;;;
2024/02/17 14:02:53;;;;;;;5.7;3.7;;;;;;;10.53;96.15918;950.3262;;;;
2024/02/17 14:05:18;;;;;;;9.4;7;;;;;;;10.56;95.66211;950.3987;;;;
2024/02/17 14:07:45;;;;;;;6.3;4.4;;;;;;;10.58;94.92383;950.3315;;;;
2024/02/17 14:10:08;;;;;;;5.1;3.6;;;;;;;10.48;95.19922;950.3758;;;;
2024/02/17 14:12:34;;;;;;;4.6;3;;;;;;;10.52;95.28906;950.2903;;;;
2024/02/17 14:15:00;;;;;;;5;3.3;;;;;;;10.54;94.92578;950.445;;;;
2024/02/17 14:17:27;;;;;;;5.3;3.5;;;;;;;10.54;94.65137;950.4434;;;;
2024/02/17 14:19:49;;;;;;;4.5;3.3;;;;;;;10.54;94.86816;950.4141;;;;